CST,Max TemperatureF,Mean TemperatureF,Min TemperatureF,Max Dew PointF,MeanDew PointF,Min DewpointF,Max Humidity, Mean Humidity, Min Humidity, Max Sea Level PressureIn, Mean Sea Level PressureIn, Min Sea Level PressureIn, Max VisibilityMiles, Mean VisibilityMiles, Min VisibilityMiles, Max Wind SpeedMPH, Mean Wind SpeedMPH, Max Gust SpeedMPH,PrecipitationIn, CloudCover, Events, WindDirDegrees
2013-1-1,18,5,-8,16,5,-13,93,80,70,30.36,30.22,30.03,10,8,0,15,5,,0.00,6,Fog-Snow,225
2013-1-2,30,19,8,25,18,2,93,82,72,30.19,30.05,29.96,10,8,2,16,9,23,0.00,7,Snow,270
2013-1-3,26,14,3,21,9,-2,86,78,70,30.41,30.30,30.14,10,10,7,20,13,,0.00,4,Snow,288
2013-1-4,25,16,7,16,10,3,84,77,68,30.23,30.20,30.15,10,10,7,15,10,,0.00,0,,241
2013-1-5,25,14,3,18,11,-2,84,78,72,30.17,30.06,29.95,10,8,2,22,9,28,0.00,3,Snow,283
2013-1-6,23,14,6,16,9,3,87,80,74,30.32,30.24,30.09,10,10,9,14,10,,0.00,1,,238
2013-1-7,33,24,12,26,18,7,93,78,66,30.06,30.01,29.97,10,6,0,20,10,,0.02,0,Fog,232
2013-1-8,33,22,12,26,14,5,88,77,71,30.07,29.92,29.81,10,5,0,18,5,22,0.00,2,Snow,161
2013-1-9,37,27,17,28,25,15,92,79,65,30.42,30.30,30.09,10,10,10,20,13,,0.00,0,,216
2013-1-10,37,32,27,34,29,21,100,85,60,30.32,29.97,29.70,10,6,0,17,12,22,0.10,4,Fog-Rain,152
2013-1-11,39,36,27,38,35,23,100,96,85,29.68,29.50,29.38,10,2,0,25,11,33,0.01,8,Fog,177
2013-1-12,26,16,7,21,6,0,80,70,61,30.17,29.95,29.53,10,10,6,36,24,43,0.00,5,Snow,289
2013-1-13,15,9,3,3,0,-3,80,72,51,30.35,30.22,30.13,10,10,6,18,9,25,0.00,4,Snow,305
2013-1-14,25,14,3,12,6,-2,84,76,55,30.49,30.40,30.35,10,10,10,12,4,,0.00,0,,224
2013-1-15,33,24,14,17,13,9,80,68,42,30.34,30.19,29.95,10,10,10,21,13,30,0.00,1,,210
2013-1-16,46,30,12,33,22,4,87,73,58,30.30,29.95,29.77,10,10,10,22,17,33,0.00,5,,283
2013-1-17,35,22,9,25,14,-4,86,67,47,30.47,30.40,30.26,10,10,10,15,8,17,0.00,5,,318
2013-1-18,48,37,26,31,28,23,89,71,50,30.24,29.95,29.83,10,10,7,25,13,30,0.00,0,,224
2013-1-19,46,29,9,31,22,-1,85,67,54,30.35,29.99,29.78,10,10,10,39,16,54,0.00,2,,291
2013-1-20,10,5,0,3,0,-6,80,73,67,30.50,30.39,30.31,10,7,0,16,11,,0.00,5,Snow,311
2013-1-21,3,-3,-9,-4,-11,-18,78,68,59,30.49,30.41,30.31,10,9,2,23,16,32,0.00,2,Snow,298
2013-1-22,15,5,-5,8,-2,-11,80,68,56,30.47,30.39,30.27,10,10,10,12,7,,0.00,5,,239
2013-1-23,21,10,-4,12,3,-13,80,68,56,30.64,30.34,30.20,10,10,8,23,13,31,0.00,3,,327
2013-1-24,17,6,-4,5,-5,-13,66,60,53,30.66,30.48,30.19,10,10,10,20,12,28,0.00,3,,121
2013-1-25,30,18,3,20,9,-3,80,69,57,30.35,30.18,30.03,10,10,10,26,12,36,0.00,3,,300
2013-1-26,30,16,1,16,7,-4,80,64,51,30.35,30.23,30.09,10,10,10,18,8,24,0.00,4,,134
2013-1-27,33,30,28,32,28,16,96,85,56,30.06,29.85,29.74,10,4,0,15,11,18,0.13,8,Fog-Rain,140
2013-1-28,35,34,32,34,32,30,100,96,87,29.89,29.78,29.56,0,0,0,13,5,,0.05,8,Fog-Snow,112
2013-1-29,34,29,23,34,28,19,100,88,81,29.76,29.65,29.56,10,6,0,26,11,36,0.01,8,Fog-Rain,340
2013-1-30,23,16,5,19,9,-1,86,73,63,29.93,29.79,29.67,10,10,6,31,24,41,0.00,7,Snow,321
2013-1-31,5,0,-7,-2,-9,-15,76,65,55,30.43,30.15,29.84,10,10,4,29,20,37,0.00,4,Snow,307